sensor_id;sensor_type;location;lat;lon;timestamp;P1;durP1;ratioP1;P2;durP2;ratioP2
31308;SDS011;17936;52.446;10.840;2023-05-07T00:01:12;7.57;;;4.63;;
31308;SDS011;17936;52.446;10.840;2023-05-07T00:03:38;8.38;;;4.97;;
31308;SDS011;17936;52.446;10.840;2023-05-07T00:06:04;8.30;;;5.32;;
31308;SDS011;17936;52.446;10.840;2023-05-07T00:08:29;9.48;;;5.85;;
31308;SDS011;17936;52.446;10.840;2023-05-07T00:10:55;8.75;;;5.65;;
31308;SDS011;17936;52.446;10.840;2023-05-07T00:13:20;8.75;;;5.38;;
31308;SDS011;17936;52.446;10.840;2023-05-07T00:15:46;11.13;;;6.07;;
31308;SDS011;17936;52.446;10.840;2023-05-07T00:18:11;11.55;;;6.65;;
31308;SDS011;17936;52.446;10.840;2023-05-07T00:20:37;10.45;;;6.43;;
31308;SDS011;17936;52.446;10.840;2023-05-07T00:23:02;9.93;;;6.00;;
31308;SDS011;17936;52.446;10.840;2023-05-07T00:25:28;10.35;;;6.47;;
31308;SDS011;17936;52.446;10.840;2023-05-07T00:27:53;11.30;;;6.40;;
31308;SDS011;17936;52.446;10.840;2023-05-07T00:30:19;9.93;;;6.05;;
31308;SDS011;17936;52.446;10.840;2023-05-07T00:32:44;10.43;;;5.97;;
31308;SDS011;17936;52.446;10.840;2023-05-07T00:35:10;10.32;;;6.18;;
31308;SDS011;17936;52.446;10.840;2023-05-07T00:37:36;10.13;;;5.35;;
31308;SDS011;17936;52.446;10.840;2023-05-07T00:40:02;9.82;;;6.38;;
31308;SDS011;17936;52.446;10.840;2023-05-07T00:42:29;10.57;;;5.63;;
31308;SDS011;17936;52.446;10.840;2023-05-07T00:44:57;11.52;;;7.18;;
31308;SDS011;17936;52.446;10.840;2023-05-07T00:47:23;12.82;;;7.05;;
31308;SDS011;17936;52.446;10.840;2023-05-07T00:49:49;13.30;;;6.38;;
31308;SDS011;17936;52.446;10.840;2023-05-07T00:52:16;11.95;;;6.50;;
31308;SDS011;17936;52.446;10.840;2023-05-07T00:54:42;11.18;;;6.68;;
31308;SDS011;17936;52.446;10.840;2023-05-07T00:57:09;13.85;;;6.78;;
31308;SDS011;17936;52.446;10.840;2023-05-07T00:59:36;9.75;;;6.10;;
31308;SDS011;17936;52.446;10.840;2023-05-07T01:02:02;9.98;;;6.45;;
31308;SDS011;17936;52.446;10.840;2023-05-07T01:04:27;14.48;;;7.22;;
31308;SDS011;17936;52.446;10.840;2023-05-07T01:06:56;11.23;;;6.50;;
31308;SDS011;17936;52.446;10.840;2023-05-07T01:09:23;9.38;;;5.40;;
31308;SDS011;17936;52.446;10.840;2023-05-07T01:11:50;9.27;;;5.32;;
31308;SDS011;17936;52.446;10.840;2023-05-07T01:14:17;8.43;;;5.95;;
31308;SDS011;17936;52.446;10.840;2023-05-07T01:16:43;10.38;;;5.72;;
31308;SDS011;17936;52.446;10.840;2023-05-07T01:19:09;11.15;;;6.70;;
31308;SDS011;17936;52.446;10.840;2023-05-07T01:21:36;9.85;;;6.47;;
31308;SDS011;17936;52.446;10.840;2023-05-07T01:24:03;13.63;;;7.55;;
31308;SDS011;17936;52.446;10.840;2023-05-07T01:26:29;10.95;;;6.22;;
31308;SDS011;17936;52.446;10.840;2023-05-07T01:28:55;9.98;;;6.63;;
31308;SDS011;17936;52.446;10.840;2023-05-07T01:31:21;9.13;;;5.95;;
31308;SDS011;17936;52.446;10.840;2023-05-07T01:33:49;9.65;;;5.90;;
31308;SDS011;17936;52.446;10.840;2023-05-07T01:36:17;10.50;;;5.82;;
31308;SDS011;17936;52.446;10.840;2023-05-07T01:38:43;9.23;;;5.88;;
31308;SDS011;17936;52.446;10.840;2023-05-07T01:41:09;14.38;;;5.97;;
31308;SDS011;17936;52.446;10.840;2023-05-07T01:43:36;7.28;;;4.55;;
31308;SDS011;17936;52.446;10.840;2023-05-07T01:46:02;9.68;;;4.88;;
31308;SDS011;17936;52.446;10.840;2023-05-07T01:48:28;6.93;;;5.43;;
31308;SDS011;17936;52.446;10.840;2023-05-07T01:50:54;6.97;;;5.03;;
31308;SDS011;17936;52.446;10.840;2023-05-07T01:53:20;7.50;;;5.25;;
31308;SDS011;17936;52.446;10.840;2023-05-07T01:55:46;6.82;;;5.10;;
31308;SDS011;17936;52.446;10.840;2023-05-07T01:58:11;8.18;;;5.22;;
31308;SDS011;17936;52.446;10.840;2023-05-07T02:00:37;8.93;;;5.47;;
31308;SDS011;17936;52.446;10.840;2023-05-07T02:03:03;8.18;;;5.60;;
31308;SDS011;17936;52.446;10.840;2023-05-07T02:05:28;10.75;;;6.15;;
31308;SDS011;17936;52.446;10.840;2023-05-07T02:07:54;6.80;;;4.47;;
31308;SDS011;17936;52.446;10.840;2023-05-07T02:10:19;9.95;;;6.10;;
31308;SDS011;17936;52.446;10.840;2023-05-07T02:12:45;8.02;;;5.70;;
31308;SDS011;17936;52.446;10.840;2023-05-07T02:15:10;8.85;;;5.80;;
31308;SDS011;17936;52.446;10.840;2023-05-07T02:17:38;8.10;;;5.65;;
31308;SDS011;17936;52.446;10.840;2023-05-07T02:20:22;8.82;;;6.18;;
31308;SDS011;17936;52.446;10.840;2023-05-07T02:22:48;9.10;;;5.90;;
31308;SDS011;17936;52.446;10.840;2023-05-07T02:25:13;9.10;;;5.85;;
31308;SDS011;17936;52.446;10.840;2023-05-07T02:27:39;8.60;;;4.82;;
31308;SDS011;17936;52.446;10.840;2023-05-07T02:30:04;8.50;;;6.03;;
31308;SDS011;17936;52.446;10.840;2023-05-07T02:32:30;10.98;;;6.68;;
31308;SDS011;17936;52.446;10.840;2023-05-07T02:34:56;8.45;;;6.18;;
31308;SDS011;17936;52.446;10.840;2023-05-07T02:37:21;10.80;;;7.07;;
31308;SDS011;17936;52.446;10.840;2023-05-07T02:39:47;10.63;;;7.30;;
31308;SDS011;17936;52.446;10.840;2023-05-07T02:42:12;9.30;;;6.72;;
31308;SDS011;17936;52.446;10.840;2023-05-07T02:44:38;10.27;;;7.05;;
31308;SDS011;17936;52.446;10.840;2023-05-07T02:47:03;10.55;;;6.97;;
31308;SDS011;17936;52.446;10.840;2023-05-07T02:49:29;9.25;;;6.90;;
31308;SDS011;17936;52.446;10.840;2023-05-07T02:51:54;14.00;;;6.70;;
31308;SDS011;17936;52.446;10.840;2023-05-07T02:54:20;10.30;;;7.13;;
31308;SDS011;17936;52.446;10.840;2023-05-07T02:56:46;11.77;;;7.28;;
31308;SDS011;17936;52.446;10.840;2023-05-07T02:59:11;9.95;;;6.18;;
31308;SDS011;17936;52.446;10.840;2023-05-07T03:01:37;11.73;;;7.63;;
31308;SDS011;17936;52.446;10.840;2023-05-07T03:04:02;10.95;;;7.13;;
31308;SDS011;17936;52.446;10.840;2023-05-07T03:06:28;10.15;;;7.35;;
31308;SDS011;17936;52.446;10.840;2023-05-07T03:08:53;10.77;;;7.45;;
31308;SDS011;17936;52.446;10.840;2023-05-07T03:11:19;10.88;;;6.90;;
31308;SDS011;17936;52.446;10.840;2023-05-07T03:13:44;11.32;;;7.30;;
31308;SDS011;17936;52.446;10.840;2023-05-07T03:16:10;8.88;;;6.05;;
31308;SDS011;17936;52.446;10.840;2023-05-07T03:18:35;10.07;;;6.97;;
31308;SDS011;17936;52.446;10.840;2023-05-07T03:21:01;10.45;;;7.03;;
31308;SDS011;17936;52.446;10.840;2023-05-07T03:23:27;10.13;;;6.90;;
31308;SDS011;17936;52.446;10.840;2023-05-07T03:25:52;9.07;;;6.68;;
31308;SDS011;17936;52.446;10.840;2023-05-07T03:28:18;9.32;;;6.72;;
31308;SDS011;17936;52.446;10.840;2023-05-07T03:30:43;8.63;;;6.40;;
31308;SDS011;17936;52.446;10.840;2023-05-07T03:33:09;11.73;;;6.40;;
31308;SDS011;17936;52.446;10.840;2023-05-07T03:35:35;8.98;;;6.50;;
31308;SDS011;17936;52.446;10.840;2023-05-07T03:38:00;9.52;;;5.82;;
31308;SDS011;17936;52.446;10.840;2023-05-07T03:40:26;8.75;;;5.72;;
31308;SDS011;17936;52.446;10.840;2023-05-07T03:42:52;9.68;;;6.28;;
31308;SDS011;17936;52.446;10.840;2023-05-07T03:45:17;11.00;;;5.25;;
31308;SDS011;17936;52.446;10.840;2023-05-07T03:47:43;11.38;;;6.70;;
31308;SDS011;17936;52.446;10.840;2023-05-07T03:50:08;8.00;;;5.57;;
31308;SDS011;17936;52.446;10.840;2023-05-07T03:52:35;11.38;;;6.90;;
31308;SDS011;17936;52.446;10.840;2023-05-07T03:55:00;8.23;;;6.15;;
31308;SDS011;17936;52.446;10.840;2023-05-07T03:57:26;8.95;;;5.95;;
31308;SDS011;17936;52.446;10.840;2023-05-07T03:59:51;7.50;;;5.85;;
31308;SDS011;17936;52.446;10.840;2023-05-07T04:02:17;8.73;;;6.20;;
31308;SDS011;17936;52.446;10.840;2023-05-07T04:04:42;9.70;;;5.97;;
31308;SDS011;17936;52.446;10.840;2023-05-07T04:07:08;9.15;;;6.05;;
31308;SDS011;17936;52.446;10.840;2023-05-07T04:09:34;6.82;;;5.35;;
31308;SDS011;17936;52.446;10.840;2023-05-07T04:12:00;7.88;;;5.03;;
31308;SDS011;17936;52.446;10.840;2023-05-07T04:14:26;7.55;;;4.63;;
31308;SDS011;17936;52.446;10.840;2023-05-07T04:16:51;7.90;;;5.20;;
31308;SDS011;17936;52.446;10.840;2023-05-07T04:19:17;9.65;;;6.25;;
31308;SDS011;17936;52.446;10.840;2023-05-07T04:21:42;8.50;;;6.60;;
31308;SDS011;17936;52.446;10.840;2023-05-07T04:24:08;8.25;;;5.72;;
31308;SDS011;17936;52.446;10.840;2023-05-07T04:26:34;11.10;;;6.00;;
31308;SDS011;17936;52.446;10.840;2023-05-07T04:28:59;9.20;;;5.90;;
31308;SDS011;17936;52.446;10.840;2023-05-07T04:31:25;9.90;;;6.55;;
31308;SDS011;17936;52.446;10.840;2023-05-07T04:33:50;10.27;;;7.40;;
31308;SDS011;17936;52.446;10.840;2023-05-07T04:36:16;9.18;;;6.05;;
31308;SDS011;17936;52.446;10.840;2023-05-07T04:38:42;11.45;;;7.07;;
31308;SDS011;17936;52.446;10.840;2023-05-07T04:41:08;9.38;;;6.00;;
31308;SDS011;17936;52.446;10.840;2023-05-07T04:43:34;10.40;;;6.65;;
31308;SDS011;17936;52.446;10.840;2023-05-07T04:46:00;9.95;;;6.75;;
31308;SDS011;17936;52.446;10.840;2023-05-07T04:48:25;10.60;;;7.53;;
31308;SDS011;17936;52.446;10.840;2023-05-07T04:50:51;9.88;;;6.68;;
31308;SDS011;17936;52.446;10.840;2023-05-07T04:53:17;11.20;;;7.45;;
31308;SDS011;17936;52.446;10.840;2023-05-07T04:55:43;13.50;;;8.07;;
31308;SDS011;17936;52.446;10.840;2023-05-07T04:58:10;13.50;;;8.55;;
31308;SDS011;17936;52.446;10.840;2023-05-07T05:00:36;11.95;;;6.85;;
31308;SDS011;17936;52.446;10.840;2023-05-07T05:03:01;17.30;;;8.25;;
31308;SDS011;17936;52.446;10.840;2023-05-07T05:05:27;10.50;;;7.18;;
31308;SDS011;17936;52.446;10.840;2023-05-07T05:07:52;12.38;;;8.07;;
31308;SDS011;17936;52.446;10.840;2023-05-07T05:10:18;13.35;;;8.00;;
31308;SDS011;17936;52.446;10.840;2023-05-07T05:12:44;14.63;;;8.70;;
31308;SDS011;17936;52.446;10.840;2023-05-07T05:15:10;13.18;;;8.18;;
31308;SDS011;17936;52.446;10.840;2023-05-07T05:17:37;13.73;;;7.88;;
31308;SDS011;17936;52.446;10.840;2023-05-07T05:20:02;11.40;;;6.95;;
31308;SDS011;17936;52.446;10.840;2023-05-07T05:22:28;9.68;;;6.28;;
31308;SDS011;17936;52.446;10.840;2023-05-07T05:24:56;12.30;;;8.38;;
31308;SDS011;17936;52.446;10.840;2023-05-07T05:27:21;13.68;;;8.90;;
31308;SDS011;17936;52.446;10.840;2023-05-07T05:29:47;13.05;;;8.25;;
31308;SDS011;17936;52.446;10.840;2023-05-07T05:32:12;14.20;;;7.60;;
31308;SDS011;17936;52.446;10.840;2023-05-07T05:34:38;13.73;;;7.80;;
31308;SDS011;17936;52.446;10.840;2023-05-07T05:37:03;9.75;;;7.03;;
31308;SDS011;17936;52.446;10.840;2023-05-07T05:39:29;12.18;;;7.88;;
31308;SDS011;17936;52.446;10.840;2023-05-07T05:41:54;12.20;;;7.10;;
31308;SDS011;17936;52.446;10.840;2023-05-07T05:44:20;12.52;;;7.50;;
31308;SDS011;17936;52.446;10.840;2023-05-07T05:46:45;12.60;;;8.10;;
31308;SDS011;17936;52.446;10.840;2023-05-07T05:49:11;12.40;;;7.65;;
31308;SDS011;17936;52.446;10.840;2023-05-07T05:51:36;13.30;;;7.95;;
31308;SDS011;17936;52.446;10.840;2023-05-07T05:54:02;10.45;;;7.10;;
31308;SDS011;17936;52.446;10.840;2023-05-07T05:56:27;12.48;;;8.00;;
31308;SDS011;17936;52.446;10.840;2023-05-07T05:58:53;13.57;;;8.00;;
31308;SDS011;17936;52.446;10.840;2023-05-07T06:01:19;13.50;;;7.78;;
31308;SDS011;17936;52.446;10.840;2023-05-07T06:03:44;11.82;;;8.43;;
31308;SDS011;17936;52.446;10.840;2023-05-07T06:06:10;12.63;;;7.57;;
31308;SDS011;17936;52.446;10.840;2023-05-07T06:08:35;13.00;;;8.57;;
31308;SDS011;17936;52.446;10.840;2023-05-07T06:11:01;14.93;;;8.05;;
31308;SDS011;17936;52.446;10.840;2023-05-07T06:13:27;11.57;;;6.85;;
31308;SDS011;17936;52.446;10.840;2023-05-07T06:15:53;11.77;;;7.20;;
31308;SDS011;17936;52.446;10.840;2023-05-07T06:18:18;12.38;;;8.18;;
31308;SDS011;17936;52.446;10.840;2023-05-07T06:20:44;14.27;;;9.00;;
31308;SDS011;17936;52.446;10.840;2023-05-07T06:23:09;12.77;;;7.90;;
31308;SDS011;17936;52.446;10.840;2023-05-07T06:25:35;10.13;;;5.70;;
31308;SDS011;17936;52.446;10.840;2023-05-07T06:28:00;13.07;;;7.78;;
31308;SDS011;17936;52.446;10.840;2023-05-07T06:30:27;13.25;;;8.30;;
31308;SDS011;17936;52.446;10.840;2023-05-07T06:32:52;13.48;;;6.35;;
31308;SDS011;17936;52.446;10.840;2023-05-07T06:35:18;10.30;;;6.78;;
31308;SDS011;17936;52.446;10.840;2023-05-07T06:37:44;12.75;;;7.68;;
31308;SDS011;17936;52.446;10.840;2023-05-07T06:40:10;11.88;;;7.95;;
31308;SDS011;17936;52.446;10.840;2023-05-07T06:42:35;11.55;;;8.13;;
31308;SDS011;17936;52.446;10.840;2023-05-07T06:45:02;12.05;;;8.45;;
31308;SDS011;17936;52.446;10.840;2023-05-07T06:47:27;10.18;;;7.05;;
31308;SDS011;17936;52.446;10.840;2023-05-07T06:49:53;11.18;;;7.30;;
31308;SDS011;17936;52.446;10.840;2023-05-07T06:52:18;13.15;;;7.13;;
31308;SDS011;17936;52.446;10.840;2023-05-07T06:54:44;10.77;;;7.82;;
31308;SDS011;17936;52.446;10.840;2023-05-07T06:57:09;9.77;;;6.57;;
31308;SDS011;17936;52.446;10.840;2023-05-07T06:59:35;10.02;;;6.85;;
31308;SDS011;17936;52.446;10.840;2023-05-07T07:02:00;10.60;;;7.63;;
31308;SDS011;17936;52.446;10.840;2023-05-07T07:04:26;11.73;;;6.65;;
31308;SDS011;17936;52.446;10.840;2023-05-07T07:06:52;8.48;;;5.97;;
31308;SDS011;17936;52.446;10.840;2023-05-07T07:09:18;11.55;;;7.38;;
31308;SDS011;17936;52.446;10.840;2023-05-07T07:11:44;11.35;;;7.22;;
31308;SDS011;17936;52.446;10.840;2023-05-07T07:14:09;11.05;;;7.93;;
31308;SDS011;17936;52.446;10.840;2023-05-07T07:16:35;10.32;;;6.10;;
31308;SDS011;17936;52.446;10.840;2023-05-07T07:19:00;11.70;;;7.22;;
31308;SDS011;17936;52.446;10.840;2023-05-07T07:21:26;12.02;;;7.95;;
31308;SDS011;17936;52.446;10.840;2023-05-07T07:23:51;11.00;;;7.88;;
31308;SDS011;17936;52.446;10.840;2023-05-07T07:26:17;11.02;;;7.03;;
31308;SDS011;17936;52.446;10.840;2023-05-07T07:28:45;11.85;;;7.32;;
31308;SDS011;17936;52.446;10.840;2023-05-07T07:31:11;11.18;;;6.43;;
31308;SDS011;17936;52.446;10.840;2023-05-07T07:33:37;10.43;;;6.35;;
31308;SDS011;17936;52.446;10.840;2023-05-07T07:36:04;9.20;;;7.15;;
31308;SDS011;17936;52.446;10.840;2023-05-07T07:38:30;10.73;;;6.80;;
31308;SDS011;17936;52.446;10.840;2023-05-07T07:40:56;11.73;;;6.88;;
31308;SDS011;17936;52.446;10.840;2023-05-07T07:43:21;9.90;;;6.15;;
31308;SDS011;17936;52.446;10.840;2023-05-07T07:45:47;9.93;;;6.57;;
31308;SDS011;17936;52.446;10.840;2023-05-07T07:48:12;9.07;;;6.38;;
31308;SDS011;17936;52.446;10.840;2023-05-07T07:50:38;10.18;;;6.65;;
31308;SDS011;17936;52.446;10.840;2023-05-07T07:53:03;11.20;;;6.60;;
31308;SDS011;17936;52.446;10.840;2023-05-07T07:55:29;9.90;;;5.85;;
31308;SDS011;17936;52.446;10.840;2023-05-07T07:57:56;8.32;;;5.07;;
31308;SDS011;17936;52.446;10.840;2023-05-07T08:00:21;8.38;;;5.47;;
31308;SDS011;17936;52.446;10.840;2023-05-07T08:02:47;7.90;;;5.50;;
31308;SDS011;17936;52.446;10.840;2023-05-07T08:05:12;7.70;;;5.07;;
31308;SDS011;17936;52.446;10.840;2023-05-07T08:07:38;8.20;;;5.47;;
31308;SDS011;17936;52.446;10.840;2023-05-07T08:10:03;10.23;;;5.80;;
31308;SDS011;17936;52.446;10.840;2023-05-07T08:12:29;8.65;;;5.90;;
31308;SDS011;17936;52.446;10.840;2023-05-07T08:14:54;9.02;;;5.57;;
31308;SDS011;17936;52.446;10.840;2023-05-07T08:17:20;13.27;;;4.93;;
31308;SDS011;17936;52.446;10.840;2023-05-07T08:19:47;7.60;;;4.95;;
31308;SDS011;17936;52.446;10.840;2023-05-07T08:22:13;8.55;;;4.80;;
31308;SDS011;17936;52.446;10.840;2023-05-07T08:24:39;7.75;;;4.68;;
31308;SDS011;17936;52.446;10.840;2023-05-07T08:27:05;6.38;;;4.10;;
31308;SDS011;17936;52.446;10.840;2023-05-07T08:29:30;8.00;;;4.70;;
31308;SDS011;17936;52.446;10.840;2023-05-07T08:31:56;5.68;;;3.72;;
31308;SDS011;17936;52.446;10.840;2023-05-07T08:34:21;6.53;;;4.25;;
31308;SDS011;17936;52.446;10.840;2023-05-07T08:36:47;8.48;;;4.63;;
31308;SDS011;17936;52.446;10.840;2023-05-07T08:39:13;7.55;;;4.53;;
31308;SDS011;17936;52.446;10.840;2023-05-07T08:41:45;7.30;;;4.97;;
31308;SDS011;17936;52.446;10.840;2023-05-07T08:44:12;6.82;;;4.70;;
31308;SDS011;17936;52.446;10.840;2023-05-07T08:46:41;7.22;;;4.63;;
31308;SDS011;17936;52.446;10.840;2023-05-07T08:49:11;8.27;;;4.85;;
31308;SDS011;17936;52.446;10.840;2023-05-07T08:51:37;9.13;;;5.10;;
31308;SDS011;17936;52.446;10.840;2023-05-07T08:54:02;8.45;;;5.85;;
31308;SDS011;17936;52.446;10.840;2023-05-07T08:56:29;6.75;;;5.05;;
31308;SDS011;17936;52.446;10.840;2023-05-07T08:58:55;6.65;;;4.05;;
31308;SDS011;17936;52.446;10.840;2023-05-07T09:01:23;8.30;;;4.90;;
31308;SDS011;17936;52.446;10.840;2023-05-07T09:03:50;7.82;;;4.95;;
31308;SDS011;17936;52.446;10.840;2023-05-07T09:06:16;13.63;;;5.45;;
31308;SDS011;17936;52.446;10.840;2023-05-07T09:08:44;7.57;;;5.03;;
31308;SDS011;17936;52.446;10.840;2023-05-07T09:11:21;8.50;;;4.82;;
31308;SDS011;17936;52.446;10.840;2023-05-07T09:13:47;7.63;;;5.13;;
31308;SDS011;17936;52.446;10.840;2023-05-07T09:16:13;8.30;;;4.90;;
31308;SDS011;17936;52.446;10.840;2023-05-07T09:18:40;9.07;;;5.97;;
31308;SDS011;17936;52.446;10.840;2023-05-07T09:21:10;13.27;;;5.90;;
31308;SDS011;17936;52.446;10.840;2023-05-07T09:23:36;7.78;;;4.95;;
31308;SDS011;17936;52.446;10.840;2023-05-07T09:26:02;7.88;;;4.57;;
31308;SDS011;17936;52.446;10.840;2023-05-07T09:28:29;8.32;;;5.50;;
31308;SDS011;17936;52.446;10.840;2023-05-07T09:30:54;9.02;;;5.32;;
31308;SDS011;17936;52.446;10.840;2023-05-07T09:33:20;8.27;;;5.90;;
31308;SDS011;17936;52.446;10.840;2023-05-07T09:35:46;8.70;;;6.15;;
31308;SDS011;17936;52.446;10.840;2023-05-07T09:38:16;14.18;;;6.20;;
31308;SDS011;17936;52.446;10.840;2023-05-07T09:40:44;7.97;;;5.80;;
31308;SDS011;17936;52.446;10.840;2023-05-07T09:43:10;9.32;;;5.90;;
31308;SDS011;17936;52.446;10.840;2023-05-07T09:45:37;16.20;;;6.63;;
31308;SDS011;17936;52.446;10.840;2023-05-07T09:48:04;9.48;;;6.38;;
31308;SDS011;17936;52.446;10.840;2023-05-07T09:50:35;15.52;;;8.35;;
31308;SDS011;17936;52.446;10.840;2023-05-07T09:53:05;12.45;;;6.70;;
31308;SDS011;17936;52.446;10.840;2023-05-07T09:55:31;9.60;;;5.32;;
31308;SDS011;17936;52.446;10.840;2023-05-07T09:57:57;26.77;;;10.05;;
31308;SDS011;17936;52.446;10.840;2023-05-07T10:00:24;16.02;;;6.95;;
31308;SDS011;17936;52.446;10.840;2023-05-07T10:02:52;17.65;;;7.53;;
31308;SDS011;17936;52.446;10.840;2023-05-07T10:05:18;12.02;;;6.57;;
31308;SDS011;17936;52.446;10.840;2023-05-07T10:07:47;9.88;;;6.15;;
31308;SDS011;17936;52.446;10.840;2023-05-07T10:10:14;8.25;;;5.85;;
31308;SDS011;17936;52.446;10.840;2023-05-07T10:12:40;9.02;;;6.07;;
31308;SDS011;17936;52.446;10.840;2023-05-07T10:15:06;6.95;;;4.53;;
31308;SDS011;17936;52.446;10.840;2023-05-07T10:17:36;6.50;;;4.53;;
31308;SDS011;17936;52.446;10.840;2023-05-07T10:20:03;10.35;;;5.75;;
31308;SDS011;17936;52.446;10.840;2023-05-07T10:22:39;9.32;;;6.75;;
31308;SDS011;17936;52.446;10.840;2023-05-07T10:25:21;10.63;;;6.63;;
31308;SDS011;17936;52.446;10.840;2023-05-07T10:27:53;7.97;;;5.82;;
31308;SDS011;17936;52.446;10.840;2023-05-07T10:33:32;8.07;;;5.95;;
31308;SDS011;17936;52.446;10.840;2023-05-07T10:36:00;10.77;;;7.28;;
31308;SDS011;17936;52.446;10.840;2023-05-07T10:38:29;11.52;;;6.97;;
31308;SDS011;17936;52.446;10.840;2023-05-07T10:40:55;14.35;;;5.95;;
31308;SDS011;17936;52.446;10.840;2023-05-07T10:43:20;7.65;;;5.85;;
31308;SDS011;17936;52.446;10.840;2023-05-07T10:48:34;8.63;;;6.57;;
31308;SDS011;17936;52.446;10.840;2023-05-07T10:51:31;7.93;;;5.75;;
31308;SDS011;17936;52.446;10.840;2023-05-07T10:54:40;7.90;;;4.78;;
31308;SDS011;17936;52.446;10.840;2023-05-07T10:56:47;8.15;;;5.40;;
31308;SDS011;17936;52.446;10.840;2023-05-07T11:04:29;10.48;;;5.53;;
31308;SDS011;17936;52.446;10.840;2023-05-07T11:12:46;8.48;;;5.60;;
31308;SDS011;17936;52.446;10.840;2023-05-07T11:15:09;9.07;;;5.53;;
31308;SDS011;17936;52.446;10.840;2023-05-07T11:17:55;10.32;;;6.45;;
31308;SDS011;17936;52.446;10.840;2023-05-07T11:26:00;5.15;;;3.58;;
31308;SDS011;17936;52.446;10.840;2023-05-07T11:28:39;7.35;;;4.93;;
31308;SDS011;17936;52.446;10.840;2023-05-07T11:31:06;7.25;;;4.88;;
31308;SDS011;17936;52.446;10.840;2023-05-07T11:33:32;7.90;;;5.32;;
31308;SDS011;17936;52.446;10.840;2023-05-07T11:36:02;7.00;;;4.85;;
31308;SDS011;17936;52.446;10.840;2023-05-07T11:38:35;8.50;;;5.55;;
31308;SDS011;17936;52.446;10.840;2023-05-07T11:41:02;7.95;;;5.03;;
31308;SDS011;17936;52.446;10.840;2023-05-07T11:43:29;7.65;;;5.45;;
31308;SDS011;17936;52.446;10.840;2023-05-07T11:46:04;6.90;;;5.18;;
31308;SDS011;17936;52.446;10.840;2023-05-07T11:48:31;8.45;;;5.68;;
31308;SDS011;17936;52.446;10.840;2023-05-07T11:51:04;7.97;;;5.75;;
31308;SDS011;17936;52.446;10.840;2023-05-07T11:53:37;9.00;;;5.50;;
31308;SDS011;17936;52.446;10.840;2023-05-07T11:56:10;7.57;;;4.68;;
31308;SDS011;17936;52.446;10.840;2023-05-07T11:58:37;8.73;;;5.43;;
31308;SDS011;17936;52.446;10.840;2023-05-07T12:01:03;8.02;;;5.05;;
31308;SDS011;17936;52.446;10.840;2023-05-07T12:03:28;6.38;;;4.47;;
31308;SDS011;17936;52.446;10.840;2023-05-07T12:05:54;8.25;;;4.95;;
31308;SDS011;17936;52.446;10.840;2023-05-07T12:08:20;7.97;;;5.57;;
31308;SDS011;17936;52.446;10.840;2023-05-07T12:10:47;6.80;;;4.38;;
31308;SDS011;17936;52.446;10.840;2023-05-07T12:13:15;7.82;;;4.68;;
31308;SDS011;17936;52.446;10.840;2023-05-07T12:15:42;8.73;;;5.22;;
31308;SDS011;17936;52.446;10.840;2023-05-07T12:18:07;7.07;;;4.93;;
31308;SDS011;17936;52.446;10.840;2023-05-07T12:20:34;6.55;;;4.43;;
31308;SDS011;17936;52.446;10.840;2023-05-07T12:23:01;7.45;;;5.07;;
31308;SDS011;17936;52.446;10.840;2023-05-07T12:25:29;6.13;;;4.38;;
31308;SDS011;17936;52.446;10.840;2023-05-07T12:27:56;6.00;;;4.40;;
31308;SDS011;17936;52.446;10.840;2023-05-07T12:30:23;7.28;;;5.07;;
31308;SDS011;17936;52.446;10.840;2023-05-07T12:32:52;8.52;;;5.30;;
31308;SDS011;17936;52.446;10.840;2023-05-07T12:35:25;7.45;;;4.35;;
31308;SDS011;17936;52.446;10.840;2023-05-07T12:37:55;7.13;;;4.85;;
31308;SDS011;17936;52.446;10.840;2023-05-07T12:40:21;5.95;;;4.10;;
31308;SDS011;17936;52.446;10.840;2023-05-07T12:42:47;6.60;;;4.13;;
31308;SDS011;17936;52.446;10.840;2023-05-07T12:45:19;6.50;;;4.55;;
31308;SDS011;17936;52.446;10.840;2023-05-07T12:47:45;6.50;;;3.40;;
31308;SDS011;17936;52.446;10.840;2023-05-07T12:50:12;5.85;;;3.92;;
31308;SDS011;17936;52.446;10.840;2023-05-07T12:52:39;8.38;;;3.72;;
31308;SDS011;17936;52.446;10.840;2023-05-07T12:55:05;7.50;;;4.05;;
31308;SDS011;17936;52.446;10.840;2023-05-07T12:57:39;5.40;;;3.78;;
31308;SDS011;17936;52.446;10.840;2023-05-07T13:00:08;5.28;;;2.95;;
31308;SDS011;17936;52.446;10.840;2023-05-07T13:02:37;4.95;;;3.42;;
31308;SDS011;17936;52.446;10.840;2023-05-07T13:05:04;6.40;;;3.92;;
31308;SDS011;17936;52.446;10.840;2023-05-07T13:07:30;5.85;;;4.07;;
31308;SDS011;17936;52.446;10.840;2023-05-07T13:09:55;5.10;;;3.80;;
31308;SDS011;17936;52.446;10.840;2023-05-07T13:12:21;6.50;;;3.60;;
31308;SDS011;17936;52.446;10.840;2023-05-07T13:14:46;5.60;;;3.47;;
31308;SDS011;17936;52.446;10.840;2023-05-07T13:17:12;6.45;;;4.00;;
31308;SDS011;17936;52.446;10.840;2023-05-07T13:19:37;5.07;;;3.47;;
31308;SDS011;17936;52.446;10.840;2023-05-07T13:22:03;4.63;;;3.45;;
31308;SDS011;17936;52.446;10.840;2023-05-07T13:24:29;4.63;;;3.75;;
31308;SDS011;17936;52.446;10.840;2023-05-07T13:26:54;5.65;;;3.75;;
31308;SDS011;17936;52.446;10.840;2023-05-07T13:29:20;4.30;;;3.30;;
31308;SDS011;17936;52.446;10.840;2023-05-07T13:31:50;5.68;;;3.30;;
31308;SDS011;17936;52.446;10.840;2023-05-07T13:34:15;5.35;;;3.33;;
31308;SDS011;17936;52.446;10.840;2023-05-07T13:36:41;5.60;;;3.22;;
31308;SDS011;17936;52.446;10.840;2023-05-07T13:39:06;5.25;;;3.35;;
31308;SDS011;17936;52.446;10.840;2023-05-07T13:41:32;4.85;;;3.53;;
31308;SDS011;17936;52.446;10.840;2023-05-07T13:43:58;6.20;;;3.78;;
31308;SDS011;17936;52.446;10.840;2023-05-07T13:46:23;4.60;;;3.30;;
31308;SDS011;17936;52.446;10.840;2023-05-07T13:48:49;4.25;;;3.22;;
31308;SDS011;17936;52.446;10.840;2023-05-07T13:51:15;4.75;;;3.22;;
31308;SDS011;17936;52.446;10.840;2023-05-07T13:53:41;4.55;;;3.40;;
31308;SDS011;17936;52.446;10.840;2023-05-07T13:56:07;4.47;;;3.15;;
31308;SDS011;17936;52.446;10.840;2023-05-07T13:58:32;4.15;;;3.45;;
31308;SDS011;17936;52.446;10.840;2023-05-07T14:00:58;5.07;;;3.40;;
31308;SDS011;17936;52.446;10.840;2023-05-07T14:03:23;4.25;;;3.03;;
31308;SDS011;17936;52.446;10.840;2023-05-07T14:05:49;4.22;;;3.13;;
31308;SDS011;17936;52.446;10.840;2023-05-07T14:08:14;5.63;;;3.30;;
31308;SDS011;17936;52.446;10.840;2023-05-07T14:10:40;4.10;;;3.03;;
31308;SDS011;17936;52.446;10.840;2023-05-07T14:13:05;4.32;;;3.10;;
31308;SDS011;17936;52.446;10.840;2023-05-07T14:15:31;5.10;;;2.95;;
31308;SDS011;17936;52.446;10.840;2023-05-07T14:18:00;5.13;;;2.78;;
31308;SDS011;17936;52.446;10.840;2023-05-07T14:20:25;8.23;;;3.30;;
31308;SDS011;17936;52.446;10.840;2023-05-07T14:22:51;5.15;;;3.17;;
31308;SDS011;17936;52.446;10.840;2023-05-07T14:25:16;5.70;;;3.25;;
31308;SDS011;17936;52.446;10.840;2023-05-07T14:27:42;6.25;;;3.65;;
31308;SDS011;17936;52.446;10.840;2023-05-07T14:30:08;6.15;;;3.53;;
31308;SDS011;17936;52.446;10.840;2023-05-07T14:32:33;3.28;;;2.55;;
31308;SDS011;17936;52.446;10.840;2023-05-07T14:34:59;4.25;;;3.15;;
31308;SDS011;17936;52.446;10.840;2023-05-07T14:37:25;3.65;;;2.80;;
31308;SDS011;17936;52.446;10.840;2023-05-07T14:39:50;6.55;;;3.28;;
31308;SDS011;17936;52.446;10.840;2023-05-07T14:42:16;4.30;;;3.15;;
31308;SDS011;17936;52.446;10.840;2023-05-07T14:44:42;5.75;;;3.42;;
31308;SDS011;17936;52.446;10.840;2023-05-07T14:47:09;5.55;;;3.05;;